createdAt,value
2022-12-24T00:01:04.400Z,4.80
2022-12-24T00:03:31.044Z,4.70
2022-12-24T00:05:57.787Z,4.70
2022-12-24T00:08:24.272Z,4.60
2022-12-24T00:10:53.582Z,4.50
2022-12-24T00:13:21.163Z,4.50
2022-12-24T00:15:48.637Z,4.60
2022-12-24T00:18:15.421Z,4.70
2022-12-24T00:20:46.720Z,4.70
2022-12-24T00:23:13.583Z,4.70
2022-12-24T00:25:40.073Z,4.50
2022-12-24T00:28:06.566Z,4.50
2022-12-24T00:30:33.062Z,4.50
2022-12-24T00:32:59.542Z,4.50
2022-12-24T00:35:26.008Z,4.60
2022-12-24T00:37:52.463Z,4.50
2022-12-24T00:40:18.933Z,4.50
2022-12-24T00:42:45.378Z,4.40
2022-12-24T00:45:12.432Z,4.40
2022-12-24T00:47:39.171Z,4.40
2022-12-24T00:50:07.191Z,4.60
2022-12-24T00:52:34.458Z,4.60
2022-12-24T00:55:01.010Z,4.60
2022-12-24T00:57:27.545Z,4.30
2022-12-24T00:59:54.038Z,4.20
2022-12-24T01:02:20.674Z,4.20
2022-12-24T01:05:05.616Z,4.10
2022-12-24T01:07:32.110Z,4.20
2022-12-24T01:09:58.572Z,4.20
2022-12-24T01:12:25.602Z,4.20
2022-12-24T01:14:52.143Z,4.10
2022-12-24T01:17:18.637Z,4.10
2022-12-24T01:19:45.237Z,4.10
2022-12-24T01:22:11.986Z,4.20
2022-12-24T01:24:41.408Z,4.40
2022-12-24T01:27:08.064Z,4.50
2022-12-24T01:29:34.695Z,4.20
2022-12-24T01:32:01.181Z,4.30
2022-12-24T01:34:27.652Z,4.30
2022-12-24T01:36:54.129Z,4.30
2022-12-24T01:39:20.619Z,4.30
2022-12-24T01:42:05.308Z,4.20
2022-12-24T01:44:37.040Z,4.20
2022-12-24T01:47:46.927Z,4.00
2022-12-24T01:50:17.318Z,3.90
2022-12-24T01:52:44.112Z,4.00
2022-12-24T01:55:16.876Z,4.00
2022-12-24T01:57:51.732Z,4.00
2022-12-24T02:00:18.717Z,4.00
2022-12-24T02:02:50.038Z,3.90
2022-12-24T02:06:00.132Z,3.80
2022-12-24T02:08:39.150Z,3.90
2022-12-24T02:11:22.365Z,3.90
2022-12-24T02:13:58.612Z,3.70
2022-12-24T02:17:30.938Z,3.60
2022-12-24T02:26:05.493Z,3.60
2022-12-24T02:29:57.902Z,3.70
2022-12-24T02:33:08.411Z,3.50
2022-12-24T02:35:58.866Z,3.40
2022-12-24T02:38:39.274Z,3.40
2022-12-24T02:42:04.918Z,3.40
2022-12-24T02:44:44.474Z,3.40
2022-12-24T02:47:13.952Z,3.40
2022-12-24T02:49:46.566Z,3.40
2022-12-24T02:52:38.015Z,3.40
2022-12-24T02:58:24.744Z,3.50
2022-12-24T03:04:39.595Z,3.20
2022-12-24T03:07:36.328Z,3.10
2022-12-24T03:10:41.512Z,3.00
2022-12-24T03:13:15.751Z,2.90
2022-12-24T03:15:44.860Z,2.90
2022-12-24T03:18:16.653Z,3.00
2022-12-24T03:21:06.850Z,3.10
2022-12-24T03:23:34.703Z,3.00
2022-12-24T03:26:07.784Z,3.10
2022-12-24T03:28:37.525Z,2.90
2022-12-24T03:31:06.666Z,2.90
2022-12-24T03:33:34.116Z,2.90
2022-12-24T03:36:01.109Z,2.90
2022-12-24T03:38:27.580Z,2.80
2022-12-24T03:40:54.062Z,2.90
2022-12-24T03:43:20.534Z,3.00
2022-12-24T03:45:47.422Z,2.80
2022-12-24T03:48:13.945Z,2.70
2022-12-24T03:50:40.451Z,2.70
2022-12-24T03:53:06.958Z,2.70
2022-12-24T03:55:33.489Z,2.80
2022-12-24T03:58:00.042Z,2.90
2022-12-24T04:00:26.537Z,3.00
2022-12-24T04:02:53.804Z,2.90
2022-12-24T04:05:21.345Z,2.90
2022-12-24T04:07:48.142Z,2.90
2022-12-24T04:10:16.279Z,2.90
2022-12-24T04:12:43.099Z,2.80
2022-12-24T04:15:10.493Z,2.70
2022-12-24T04:17:37.558Z,2.70
2022-12-24T04:20:04.966Z,2.50
2022-12-24T04:22:31.952Z,2.60
2022-12-24T04:24:58.421Z,2.50
2022-12-24T04:27:30.154Z,2.30
2022-12-24T04:29:57.335Z,2.20
2022-12-24T04:32:26.116Z,2.20
2022-12-24T04:34:52.612Z,2.20
2022-12-24T04:37:19.081Z,2.30
2022-12-24T04:39:45.545Z,2.50
2022-12-24T04:42:11.993Z,2.60
2022-12-24T04:44:38.468Z,2.40
2022-12-24T04:47:04.979Z,2.30
2022-12-24T04:49:31.482Z,2.30
2022-12-24T04:51:57.971Z,2.20
2022-12-24T04:54:24.451Z,2.10
2022-12-24T04:56:50.926Z,2.20
2022-12-24T04:59:17.392Z,2.10
2022-12-24T05:01:44.002Z,2.10
2022-12-24T05:04:10.527Z,2.20
2022-12-24T05:06:37.001Z,2.30
2022-12-24T05:09:03.749Z,2.40
2022-12-24T05:11:30.622Z,2.40
2022-12-24T05:13:57.105Z,2.20
2022-12-24T05:16:24.699Z,2.10
2022-12-24T05:18:52.415Z,2.10
2022-12-24T05:21:23.652Z,2.10
2022-12-24T05:24:10.961Z,2.20
2022-12-24T05:26:43.540Z,2.30
2022-12-24T05:29:11.897Z,2.40
2022-12-24T05:31:39.484Z,2.30
2022-12-24T05:34:07.403Z,2.20
2022-12-24T05:36:33.885Z,2.30
2022-12-24T05:39:00.392Z,2.30
2022-12-24T05:41:27.211Z,2.30
2022-12-24T05:43:53.764Z,2.20
2022-12-24T05:46:23.132Z,2.30
2022-12-24T05:48:51.425Z,2.40
2022-12-24T05:51:21.520Z,2.50
2022-12-24T05:53:50.002Z,2.30
2022-12-24T05:56:20.762Z,2.20
2022-12-24T05:58:47.703Z,2.20
2022-12-24T06:01:15.377Z,2.10
2022-12-24T06:03:42.368Z,2.00
2022-12-24T06:06:14.100Z,2.20
2022-12-24T06:08:41.908Z,2.30
2022-12-24T06:11:12.395Z,2.20
2022-12-24T06:13:40.720Z,2.00
2022-12-24T06:16:11.110Z,1.90
2022-12-24T06:18:37.809Z,1.80
2022-12-24T06:21:05.931Z,1.80
2022-12-24T06:23:36.248Z,1.80
2022-12-24T06:26:04.639Z,1.70
2022-12-24T06:28:35.195Z,1.60
2022-12-24T06:31:03.799Z,1.50
2022-12-24T06:33:32.408Z,1.60
2022-12-24T06:35:59.066Z,1.80
2022-12-24T06:38:25.736Z,1.60
2022-12-24T06:40:52.259Z,1.40
2022-12-24T06:43:18.737Z,1.20
2022-12-24T06:45:47.222Z,1.30
2022-12-24T06:48:15.203Z,1.30
2022-12-24T06:50:42.562Z,1.60
2022-12-24T06:53:09.860Z,1.60
2022-12-24T06:55:36.377Z,1.60
2022-12-24T06:58:03.757Z,1.50
2022-12-24T07:00:30.247Z,1.60
2022-12-24T07:02:56.784Z,1.60
2022-12-24T07:05:23.343Z,1.50
2022-12-24T07:07:49.873Z,1.50
2022-12-24T07:10:18.938Z,1.60
2022-12-24T07:12:45.897Z,1.70
2022-12-24T07:15:14.169Z,1.60
2022-12-24T07:17:40.886Z,1.60
2022-12-24T07:20:12.880Z,1.60
2022-12-24T07:22:39.332Z,1.80
2022-12-24T07:25:06.675Z,1.90
2022-12-24T07:27:33.157Z,1.90
2022-12-24T07:29:59.671Z,1.90
2022-12-24T07:32:26.179Z,2.20
2022-12-24T07:34:52.652Z,2.30
2022-12-24T07:37:19.133Z,2.30
2022-12-24T07:39:45.735Z,2.20
2022-12-24T07:42:12.203Z,2.30
2022-12-24T07:44:38.685Z,2.10
2022-12-24T07:47:05.208Z,2.20
2022-12-24T07:49:31.885Z,2.20
2022-12-24T07:51:58.382Z,2.30
2022-12-24T07:54:24.939Z,2.40
2022-12-24T07:56:51.445Z,2.40
2022-12-24T07:59:17.947Z,2.50
2022-12-24T08:01:44.988Z,2.50
2022-12-24T08:04:11.834Z,2.60
2022-12-24T08:06:38.657Z,2.50
2022-12-24T08:09:05.632Z,2.70
2022-12-24T08:11:32.116Z,2.70
2022-12-24T08:13:58.565Z,2.80
2022-12-24T08:16:25.095Z,2.80
2022-12-24T08:18:51.779Z,2.80
2022-12-24T08:21:18.264Z,2.90
2022-12-24T08:23:46.935Z,3.10
2022-12-24T08:26:13.600Z,3.00
2022-12-24T08:28:40.057Z,3.10
2022-12-24T08:31:06.963Z,3.20
2022-12-24T08:33:33.493Z,3.30
2022-12-24T08:36:01.621Z,3.50
2022-12-24T08:38:28.261Z,3.40
2022-12-24T08:40:55.903Z,3.40
2022-12-24T08:43:24.690Z,3.50
2022-12-24T08:45:51.193Z,3.70
2022-12-24T08:48:17.766Z,3.80
2022-12-24T08:50:45.043Z,3.70
2022-12-24T08:53:12.189Z,3.70
2022-12-24T08:55:38.964Z,3.90
2022-12-24T08:58:05.548Z,3.90
2022-12-24T09:00:32.036Z,4.00
2022-12-24T09:02:58.710Z,4.20
2022-12-24T09:05:25.445Z,4.10
2022-12-24T09:07:51.933Z,3.90
2022-12-24T09:10:18.878Z,3.80
2022-12-24T09:12:45.329Z,3.80
2022-12-24T09:15:13.376Z,3.70
2022-12-24T09:17:40.313Z,3.70
2022-12-24T09:20:08.614Z,3.60
2022-12-24T09:22:37.696Z,3.70
2022-12-24T09:25:09.784Z,3.70
2022-12-24T09:27:37.036Z,3.80
2022-12-24T09:30:05.854Z,3.90
2022-12-24T09:32:33.443Z,4.00
2022-12-24T09:34:59.995Z,4.20
2022-12-24T09:37:26.763Z,4.20
2022-12-24T09:39:53.214Z,4.20
2022-12-24T09:43:16.243Z,4.20
2022-12-24T09:46:38.734Z,4.40
2022-12-24T09:49:16.448Z,4.60
2022-12-24T09:51:52.954Z,4.80
2022-12-24T09:54:34.273Z,5.10
2022-12-24T09:57:25.347Z,5.30
2022-12-24T09:59:51.826Z,5.40
2022-12-24T10:02:19.885Z,5.40
2022-12-24T10:04:48.168Z,5.60
2022-12-24T10:07:54.236Z,5.70
2022-12-24T10:10:55.079Z,6.20
2022-12-24T10:14:51.560Z,6.80
2022-12-24T10:18:21.475Z,7.30
2022-12-24T10:21:15.866Z,7.60
2022-12-24T10:24:03.904Z,8.00
2022-12-24T10:26:44.998Z,8.30
2022-12-24T10:29:35.794Z,8.60
2022-12-24T10:32:29.619Z,8.90
2022-12-24T10:35:35.736Z,9.10
2022-12-24T10:38:03.732Z,9.20
2022-12-24T10:40:52.365Z,9.60
2022-12-24T10:43:23.439Z,10.10
2022-12-24T10:46:06.348Z,10.60
2022-12-24T10:48:50.812Z,10.80
2022-12-24T10:51:32.967Z,11.10
2022-12-24T10:54:22.534Z,11.60
2022-12-24T10:57:01.845Z,12.40
2022-12-24T10:59:49.712Z,13.20
2022-12-24T11:02:33.316Z,13.60
2022-12-24T11:05:04.117Z,14.20
2022-12-24T11:07:32.877Z,14.50
2022-12-24T11:10:06.917Z,14.70
2022-12-24T11:13:05.853Z,14.90
2022-12-24T11:16:55.685Z,15.10
2022-12-24T11:19:41.591Z,15.10
2022-12-24T11:22:24.722Z,15.10
2022-12-24T11:25:15.549Z,15.00
2022-12-24T11:27:49.015Z,15.10
2022-12-24T11:30:36.805Z,15.00
2022-12-24T11:33:18.122Z,15.00
2022-12-24T11:36:01.004Z,15.10
2022-12-24T11:38:30.903Z,15.10
2022-12-24T11:41:02.736Z,15.20
2022-12-24T11:43:45.258Z,15.10
2022-12-24T11:46:37.236Z,15.10
2022-12-24T11:49:49.266Z,15.30
2022-12-24T11:52:24.466Z,15.40
2022-12-24T11:55:22.479Z,15.40
2022-12-24T12:01:19.876Z,15.50
2022-12-24T12:03:52.732Z,15.50
2022-12-24T12:06:59.627Z,15.60
2022-12-24T12:09:44.164Z,15.50
2022-12-24T12:12:21.731Z,15.30
2022-12-24T12:15:35.750Z,15.30
2022-12-24T12:18:15.721Z,15.50
2022-12-24T12:20:52.485Z,15.60
2022-12-24T12:24:16.164Z,15.50
2022-12-24T12:26:44.670Z,15.40
2022-12-24T12:29:29.914Z,15.40
2022-12-24T12:32:15.554Z,15.30
2022-12-24T12:35:15.002Z,15.30
2022-12-24T12:37:53.885Z,15.30
2022-12-24T12:41:58.151Z,15.50
2022-12-24T12:46:01.734Z,15.50
2022-12-24T12:50:39.754Z,15.40
2022-12-24T12:56:37.065Z,15.30
2022-12-24T13:00:01.445Z,15.10
2022-12-24T13:05:36.901Z,15.20
2022-12-24T13:09:01.211Z,15.30
2022-12-24T13:12:54.953Z,15.40
2022-12-24T13:17:17.345Z,15.40
2022-12-24T13:20:36.136Z,15.20
2022-12-24T13:23:24.922Z,15.20
2022-12-24T13:25:55.976Z,15.30
2022-12-24T13:28:34.871Z,15.30
2022-12-24T13:31:28.249Z,15.30
2022-12-24T13:33:59.022Z,15.20
2022-12-24T13:37:01.276Z,15.30
2022-12-24T13:39:27.728Z,15.10
2022-12-24T13:41:54.205Z,15.10
2022-12-24T13:44:23.127Z,15.10
2022-12-24T13:47:21.520Z,15.10
2022-12-24T13:49:52.973Z,15.00
2022-12-24T13:52:26.641Z,15.00
2022-12-24T13:55:14.824Z,14.90
2022-12-24T13:57:57.856Z,14.90
2022-12-24T14:00:38.354Z,14.80
2022-12-24T14:04:30.711Z,14.80
2022-12-24T14:07:02.131Z,14.80
2022-12-24T14:09:31.784Z,14.80
2022-12-24T14:12:45.107Z,14.70
2022-12-24T14:17:52.083Z,14.60
2022-12-24T14:20:18.605Z,14.60
2022-12-24T14:22:46.436Z,14.40
2022-12-24T14:25:22.803Z,14.20
2022-12-24T14:28:03.492Z,14.10
2022-12-24T14:30:31.309Z,13.90
2022-12-24T14:32:57.871Z,14.00
2022-12-24T14:35:28.798Z,14.00
2022-12-24T14:38:07.148Z,14.00
2022-12-24T14:41:19.413Z,14.10
2022-12-24T14:47:13.486Z,14.10
2022-12-24T14:50:22.055Z,14.00
2022-12-24T14:53:35.710Z,13.40
2022-12-24T14:56:14.245Z,12.90
2022-12-24T14:58:42.691Z,12.60
2022-12-24T15:01:31.393Z,12.10
2022-12-24T15:04:16.791Z,11.80
2022-12-24T15:07:07.007Z,11.20
2022-12-24T15:09:33.722Z,10.80
2022-12-24T15:12:04.074Z,10.50
2022-12-24T15:14:42.216Z,10.50
2022-12-24T15:17:12.709Z,10.30
2022-12-24T15:19:44.276Z,10.10
2022-12-24T15:22:24.325Z,9.90
2022-12-24T15:24:50.874Z,9.90
2022-12-24T15:27:24.791Z,9.80
2022-12-24T15:29:55.908Z,9.70
2022-12-24T15:32:22.999Z,9.60
2022-12-24T15:34:55.174Z,9.50
2022-12-24T15:37:27.655Z,9.40
2022-12-24T15:40:09.225Z,9.40
2022-12-24T15:42:40.798Z,9.30
2022-12-24T15:45:28.219Z,9.20
2022-12-24T15:48:07.879Z,9.00
2022-12-24T15:50:47.458Z,8.90
2022-12-24T15:53:42.964Z,8.70
2022-12-24T15:56:36.993Z,8.50
2022-12-24T15:59:31.403Z,8.30
2022-12-24T16:02:40.674Z,7.90
2022-12-24T16:05:36.037Z,7.40
2022-12-24T16:08:23.090Z,7.10
2022-12-24T16:11:07.110Z,7.00
2022-12-24T16:13:42.412Z,6.80
2022-12-24T16:16:15.802Z,6.60
2022-12-24T16:19:06.480Z,6.50
2022-12-24T16:21:41.359Z,6.50
2022-12-24T16:24:23.388Z,6.40
2022-12-24T16:26:51.180Z,6.20
2022-12-24T16:29:21.835Z,6.10
2022-12-24T16:31:58.916Z,5.90
2022-12-24T16:34:29.963Z,5.90
2022-12-24T16:36:58.680Z,5.70
2022-12-24T16:39:33.485Z,5.60
2022-12-24T16:42:21.388Z,5.50
2022-12-24T16:44:48.193Z,5.40
2022-12-24T16:47:30.149Z,5.30
2022-12-24T16:50:01.598Z,5.20
2022-12-24T16:52:30.879Z,5.10
2022-12-24T16:54:57.673Z,5.00
2022-12-24T16:57:24.441Z,4.90
2022-12-24T16:59:52.524Z,4.90
2022-12-24T17:02:22.698Z,4.90
2022-12-24T17:04:49.976Z,4.90
2022-12-24T17:07:19.612Z,4.80
2022-12-24T17:09:46.084Z,4.70
2022-12-24T17:12:13.944Z,4.70
2022-12-24T17:14:41.683Z,4.60
2022-12-24T17:17:27.329Z,4.40
2022-12-24T17:19:55.600Z,4.40
2022-12-24T17:22:23.455Z,4.30
2022-12-24T17:24:50.007Z,4.30
2022-12-24T17:27:16.466Z,4.20
2022-12-24T17:29:42.936Z,4.10
2022-12-24T17:32:09.421Z,4.10
2022-12-24T17:34:35.946Z,4.10
2022-12-24T17:37:02.458Z,4.00
2022-12-24T17:39:28.966Z,4.00
2022-12-24T17:41:56.391Z,4.10
2022-12-24T17:44:22.938Z,4.10
2022-12-24T17:46:49.543Z,4.00
2022-12-24T17:49:16.196Z,3.90
2022-12-24T17:51:45.535Z,4.00
2022-12-24T17:54:13.146Z,4.40
2022-12-24T17:56:39.730Z,4.90
2022-12-24T17:59:06.244Z,5.20
2022-12-24T18:01:32.781Z,4.60
2022-12-24T18:04:01.919Z,4.40
2022-12-24T18:06:29.188Z,4.10
2022-12-24T18:08:55.671Z,4.20
2022-12-24T18:11:29.693Z,4.10
2022-12-24T18:13:57.276Z,4.10
2022-12-24T18:16:31.250Z,4.10
2022-12-24T18:18:59.758Z,4.20
2022-12-24T18:21:30.439Z,4.20
2022-12-24T18:23:57.568Z,4.20
2022-12-24T18:26:28.086Z,4.20
2022-12-24T18:28:57.168Z,4.10
2022-12-24T18:31:25.872Z,4.20
2022-12-24T18:33:54.946Z,4.30
2022-12-24T18:36:22.429Z,4.30
2022-12-24T18:38:49.210Z,4.30
2022-12-24T18:41:23.816Z,4.30
2022-12-24T18:43:51.252Z,4.20
2022-12-24T18:46:22.813Z,4.30
2022-12-24T18:48:50.167Z,4.50
2022-12-24T18:51:21.471Z,4.40
2022-12-24T18:53:48.899Z,4.20
2022-12-24T18:56:22.726Z,4.10
2022-12-24T18:58:52.798Z,4.00
2022-12-24T19:01:26.555Z,4.00
2022-12-24T19:03:53.268Z,4.20
2022-12-24T19:06:20.784Z,4.30
2022-12-24T19:08:57.581Z,4.40
2022-12-24T19:11:27.746Z,4.50
2022-12-24T19:13:54.195Z,4.70
2022-12-24T19:16:21.444Z,4.80
2022-12-24T19:18:48.492Z,4.80
2022-12-24T19:21:17.640Z,4.90
2022-12-24T19:23:45.786Z,4.90
2022-12-24T19:26:13.877Z,4.90
2022-12-24T19:28:41.529Z,5.00
2022-12-24T19:31:12.111Z,4.90
2022-12-24T19:33:44.230Z,5.00
2022-12-24T19:36:22.439Z,5.00
2022-12-24T19:38:49.442Z,5.00
2022-12-24T19:41:24.221Z,5.00
2022-12-24T19:43:54.710Z,5.00
2022-12-24T19:46:29.525Z,4.80
2022-12-24T19:48:59.613Z,4.80
2022-12-24T19:51:28.746Z,4.80
2022-12-24T19:53:56.954Z,4.80
2022-12-24T19:56:25.974Z,4.80
2022-12-24T19:58:53.594Z,4.90
2022-12-24T20:01:27.511Z,5.00
2022-12-24T20:03:54.880Z,5.20
2022-12-24T20:06:30.041Z,5.20
2022-12-24T20:09:02.173Z,5.20
2022-12-24T20:11:28.913Z,5.20
2022-12-24T20:14:01.140Z,5.00
2022-12-24T20:16:28.842Z,5.00
2022-12-24T20:19:05.393Z,5.10
2022-12-24T20:21:32.765Z,5.10
2022-12-24T20:23:59.636Z,5.00
2022-12-24T20:26:28.484Z,5.00
2022-12-24T20:28:55.476Z,5.10
2022-12-24T20:31:27.034Z,5.10
2022-12-24T20:33:54.954Z,5.10
2022-12-24T20:36:24.008Z,5.20
2022-12-24T20:38:51.062Z,5.20
2022-12-24T20:41:21.157Z,5.40
2022-12-24T20:43:48.972Z,5.60
2022-12-24T20:46:18.227Z,5.50
2022-12-24T20:48:45.162Z,5.50
2022-12-24T20:51:25.521Z,5.40
2022-12-24T20:53:59.529Z,5.20
2022-12-24T20:56:27.317Z,5.10
2022-12-24T20:58:53.829Z,5.00
2022-12-24T21:01:25.425Z,5.00
2022-12-24T21:03:54.548Z,5.20
2022-12-24T21:06:23.290Z,5.50
2022-12-24T21:08:51.108Z,5.20
2022-12-24T21:11:37.113Z,5.10
2022-12-24T21:14:03.922Z,5.10
2022-12-24T21:16:32.131Z,5.20
2022-12-24T21:18:59.162Z,5.20
2022-12-24T21:21:25.698Z,5.00
2022-12-24T21:23:52.241Z,5.00
2022-12-24T21:26:18.719Z,5.00
2022-12-24T21:28:45.315Z,5.00
2022-12-24T21:31:13.942Z,5.00
2022-12-24T21:33:41.626Z,5.00
2022-12-24T21:36:11.083Z,5.00
2022-12-24T21:38:37.615Z,5.10
2022-12-24T21:41:13.423Z,5.20
2022-12-24T21:43:40.048Z,5.10
2022-12-24T21:46:17.858Z,5.20
2022-12-24T21:49:03.542Z,5.10
2022-12-24T21:51:30.442Z,5.20
2022-12-24T21:54:15.643Z,5.20
2022-12-24T21:57:00.795Z,5.10
2022-12-24T21:59:27.826Z,5.10
2022-12-24T22:01:56.377Z,5.00
2022-12-24T22:04:24.308Z,5.00
2022-12-24T22:07:09.345Z,5.10
2022-12-24T22:09:56.231Z,5.20
2022-12-24T22:12:23.082Z,5.00
2022-12-24T22:14:49.605Z,5.10
2022-12-24T22:17:22.885Z,5.00
2022-12-24T22:19:51.680Z,5.10
2022-12-24T22:22:18.162Z,5.10
2022-12-24T22:24:44.642Z,5.10
2022-12-24T22:27:11.121Z,5.20
2022-12-24T22:29:37.589Z,5.30
2022-12-24T22:32:04.077Z,5.30
2022-12-24T22:34:32.089Z,5.30
2022-12-24T22:36:58.543Z,5.30
2022-12-24T22:39:25.133Z,5.30
2022-12-24T22:41:52.452Z,5.10
2022-12-24T22:44:19.226Z,4.90
2022-12-24T22:46:45.720Z,4.90
2022-12-24T22:49:12.189Z,5.00
2022-12-24T22:51:38.659Z,4.90
2022-12-24T22:54:05.153Z,4.90
2022-12-24T22:56:36.903Z,4.90
2022-12-24T22:59:07.014Z,5.00
2022-12-24T23:01:40.391Z,5.00
2022-12-24T23:04:07.529Z,5.00
2022-12-24T23:06:35.614Z,5.10
2022-12-24T23:09:04.922Z,5.20
2022-12-24T23:11:31.516Z,5.20
2022-12-24T23:14:16.477Z,5.20
2022-12-24T23:16:43.088Z,5.20
2022-12-24T23:19:10.157Z,5.30
2022-12-24T23:21:37.692Z,5.20
2022-12-24T23:24:05.219Z,5.20
2022-12-24T23:26:31.700Z,5.20
2022-12-24T23:28:58.157Z,5.30
2022-12-24T23:31:25.375Z,5.40
2022-12-24T23:33:52.313Z,5.40
2022-12-24T23:36:19.306Z,5.40
2022-12-24T23:38:45.786Z,5.30
2022-12-24T23:41:13.021Z,5.20
2022-12-24T23:43:39.509Z,5.10
2022-12-24T23:46:06.319Z,5.20
2022-12-24T23:48:32.890Z,5.20
2022-12-24T23:51:09.580Z,5.30
2022-12-24T23:53:36.280Z,5.40
2022-12-24T23:56:03.763Z,5.40
2022-12-24T23:58:30.453Z,5.40
